Time;durP1;ratioP1;P1;durP2;ratioP2;P2;SDS_P1;SDS_P2;PMS_P1;PMS_P2;Temp;Humidity;BMP_temperature;BMP_pressure;BME280_temperature;BME280_humidity;BME280_pressure;Samples;Min_cycle;Max_cycle;Signal;HPM_P1;HPM_P2
2023/06/23 00:00:25;;;;;;;15.18;13.82;;;17.80;99.90;;;;;;5115728;27;20055;-39
2023/06/23 00:02:51;;;;;;;17.42;15.73;;;17.70;99.90;;;;;;5096997;27;20047;-39
2023/06/23 00:05:17;;;;;;;15.23;13.73;;;17.70;99.90;;;;;;5116006;27;20550;-41
2023/06/23 00:07:43;;;;;;;17.27;15.65;;;17.70;99.90;;;;;;5116434;27;20047;-39
2023/06/23 00:10:10;;;;;;;17.35;15.55;;;17.60;99.90;;;;;;5115951;27;20511;-39
2023/06/23 00:12:41;;;;;;;20.67;17.42;;;17.70;99.90;;;;;;5115199;27;20043;-39
2023/06/23 00:15:16;;;;;;;22.27;17.33;;;17.60;99.90;;;;;;5115320;27;20046;-39
2023/06/23 00:17:48;;;;;;;20.67;18.48;;;17.60;99.90;;;;;;5096565;27;20047;-39
2023/06/23 00:20:14;;;;;;;20.50;18.60;;;17.60;99.90;;;;;;5114404;27;20047;-39
2023/06/23 00:22:40;;;;;;;20.23;18.38;;;17.60;99.90;;;;;;5114726;27;20335;-39
2023/06/23 00:25:09;;;;;;;21.80;19.60;;;17.60;99.90;;;;;;5114168;27;20456;-39
2023/06/23 00:27:39;;;;;;;20.23;18.30;;;17.60;99.90;;;;;;5114835;27;20111;-39
2023/06/23 00:30:05;;;;;;;21.20;19.30;;;17.60;99.90;;;;;;5114631;27;20050;-38
2023/06/23 00:32:30;;;;;;;22.13;19.80;;;17.60;99.90;;;;;;5114539;27;20127;-39
2023/06/23 00:34:56;;;;;;;22.63;20.58;;;17.60;99.90;;;;;;5108302;27;20407;-39
2023/06/23 00:37:22;;;;;;;23.65;21.35;;;17.60;99.90;;;;;;5109890;27;20543;-39
2023/06/23 00:39:48;;;;;;;24.05;21.83;;;17.50;99.90;;;;;;5093954;27;20573;-38
2023/06/23 00:42:13;;;;;;;24.20;21.77;;;17.60;99.90;;;;;;5125691;27;20043;-39
2023/06/23 00:44:39;;;;;;;25.50;22.90;;;17.50;99.90;;;;;;5105564;27;20053;-39
2023/06/23 00:47:06;;;;;;;23.88;21.58;;;17.50;99.90;;;;;;5114835;27;20088;-38
2023/06/23 00:49:35;;;;;;;24.98;22.80;;;17.50;99.90;;;;;;5114091;27;20128;-39
2023/06/23 00:52:02;;;;;;;24.13;21.75;;;17.50;99.90;;;;;;5113728;27;20716;-39
2023/06/23 00:54:28;;;;;;;25.50;23.00;;;17.50;99.90;;;;;;5113044;27;20363;-39
2023/06/23 00:56:59;;;;;;;26.00;23.58;;;17.50;99.90;;;;;;5114415;27;20148;-39
2023/06/23 00:59:29;;;;;;;26.30;23.58;;;17.50;99.90;;;;;;5114383;27;20082;-39
2023/06/23 01:02:02;;;;;;;27.38;24.83;;;17.50;99.90;;;;;;5113871;27;20054;-38
2023/06/23 01:04:32;;;;;;;29.02;26.27;;;17.40;99.90;;;;;;5110343;27;20043;-39
2023/06/23 01:07:05;;;;;;;29.08;26.38;;;17.40;99.90;;;;;;5109547;27;20570;-39
2023/06/23 01:09:34;;;;;;;29.23;26.60;;;17.40;99.90;;;;;;5134428;27;20081;-39
2023/06/23 01:12:34;;;;;;;31.17;28.17;;;17.40;99.90;;;;;;5135472;27;20467;-39
2023/06/23 01:15:21;;;;;;;30.50;27.52;;;17.30;99.90;;;;;;5120946;27;20302;-39
2023/06/23 01:18:05;;;;;;;31.40;28.38;;;17.30;99.90;;;;;;5134436;27;20055;-39
2023/06/23 01:20:35;;;;;;;33.17;29.65;;;17.20;99.90;;;;;;5120892;27;20088;-38
2023/06/23 01:23:16;;;;;;;32.40;29.17;;;17.20;99.90;;;;;;5113379;27;20075;-39
2023/06/23 01:26:00;;;;;;;33.70;30.30;;;17.10;99.90;;;;;;5113231;27;20161;-38
2023/06/23 01:28:52;;;;;;;30.98;28.00;;;17.10;99.90;;;;;;5115081;27;20122;-39
2023/06/23 01:31:31;;;;;;;32.80;29.58;;;17.00;99.90;;;;;;5114431;27;20576;-39
2023/06/23 01:34:02;;;;;;;33.90;30.60;;;17.00;99.90;;;;;;5110199;27;20051;-38
2023/06/23 01:36:37;;;;;;;31.60;28.70;;;16.90;99.90;;;;;;5102505;27;20122;-39
2023/06/23 01:39:07;;;;;;;32.80;29.80;;;16.90;99.90;;;;;;5126667;27;20050;-38
2023/06/23 01:41:40;;;;;;;34.70;31.40;;;16.80;99.90;;;;;;5114020;27;20043;-38
2023/06/23 01:44:13;;;;;;;32.80;29.48;;;16.70;99.90;;;;;;5103850;27;20054;-39
2023/06/23 01:46:43;;;;;;;30.75;27.75;;;16.70;99.90;;;;;;5095870;27;20522;-38
2023/06/23 01:49:13;;;;;;;31.58;28.55;;;16.70;99.90;;;;;;5114708;27;20046;-39
2023/06/23 01:51:45;;;;;;;30.55;27.67;;;16.60;99.90;;;;;;5113832;27;20244;-38
2023/06/23 01:54:14;;;;;;;33.15;30.08;;;16.60;99.90;;;;;;5113616;27;20474;-38
2023/06/23 01:56:42;;;;;;;30.08;27.13;;;16.60;99.90;;;;;;5113926;27;20380;-39
2023/06/23 01:59:13;;;;;;;31.05;28.20;;;16.50;99.90;;;;;;5113847;27;20556;-39
2023/06/23 02:01:42;;;;;;;31.38;28.40;;;16.50;99.90;;;;;;5111781;27;20455;-39
2023/06/23 02:04:09;;;;;;;31.55;28.38;;;16.40;99.90;;;;;;5113881;27;20394;-38
2023/06/23 02:06:37;;;;;;;32.33;29.23;;;16.40;99.90;;;;;;5111517;27;20065;-39
2023/06/23 02:09:07;;;;;;;31.23;28.38;;;16.40;99.90;;;;;;5113696;27;20295;-38
2023/06/23 02:11:35;;;;;;;31.75;28.75;;;16.30;99.90;;;;;;5113905;27;20082;-38
2023/06/23 02:14:02;;;;;;;33.13;30.13;;;16.30;99.90;;;;;;5112168;27;20526;-38
2023/06/23 02:16:30;;;;;;;35.80;32.38;;;16.30;99.90;;;;;;5113238;27;20059;-39
2023/06/23 02:18:58;;;;;;;34.92;31.63;;;16.30;99.90;;;;;;5113006;27;20189;-38
2023/06/23 02:21:26;;;;;;;35.45;31.90;;;16.30;99.90;;;;;;5114421;27;20058;-39
2023/06/23 02:23:53;;;;;;;34.60;31.30;;;16.20;99.90;;;;;;5113501;27;20035;-38
2023/06/23 02:26:22;;;;;;;36.22;32.58;;;16.20;99.90;;;;;;5113565;27;20083;-38
2023/06/23 02:28:50;;;;;;;38.25;34.80;;;16.20;99.90;;;;;;5112938;27;20146;-38
2023/06/23 02:31:21;;;;;;;37.85;34.17;;;16.10;99.90;;;;;;5112382;27;20554;-38
2023/06/23 02:33:47;;;;;;;39.05;35.58;;;16.10;99.90;;;;;;5111346;27;20046;-38
2023/06/23 02:36:19;;;;;;;39.78;35.97;;;16.10;99.90;;;;;;5106610;27;20368;-38
2023/06/23 02:38:47;;;;;;;39.70;35.72;;;16.00;99.90;;;;;;5132061;27;20057;-38
2023/06/23 02:41:15;;;;;;;42.13;37.85;;;16.00;99.90;;;;;;5113080;27;20103;-39
2023/06/23 02:43:48;;;;;;;41.25;37.45;;;16.00;99.90;;;;;;5084704;27;20229;-38
2023/06/23 02:46:17;;;;;;;42.00;37.95;;;16.00;99.90;;;;;;5114705;27;20082;-38
2023/06/23 02:48:44;;;;;;;43.70;39.33;;;16.00;99.90;;;;;;5113774;27;20047;-38
2023/06/23 02:51:14;;;;;;;47.22;42.85;;;16.00;99.90;;;;;;5095553;28;20047;-38
2023/06/23 02:53:56;;;;;;;43.85;39.55;;;15.90;99.90;;;;;;5113579;27;20060;-38
2023/06/23 02:56:25;;;;;;;43.00;38.67;;;15.90;99.90;;;;;;5096188;28;20043;-38
2023/06/23 02:58:58;;;;;;;48.47;43.70;;;15.90;99.90;;;;;;5113439;27;20061;-39
2023/06/23 03:01:26;;;;;;;45.30;40.83;;;15.90;99.90;;;;;;5114305;27;20128;-39
2023/06/23 03:03:54;;;;;;;44.58;40.25;;;15.90;99.90;;;;;;5113181;27;20055;-38
2023/06/23 03:06:21;;;;;;;50.67;45.80;;;15.80;99.90;;;;;;5111124;27;20498;-38
2023/06/23 03:08:47;;;;;;;53.35;48.28;;;15.80;99.90;;;;;;5094530;28;20590;-38
2023/06/23 03:11:16;;;;;;;49.28;44.55;;;15.80;99.90;;;;;;5094177;27;20146;-39
2023/06/23 03:13:43;;;;;;;54.10;48.85;;;15.80;99.90;;;;;;5112041;27;20096;-39
2023/06/23 03:16:34;;;;;;;49.65;44.75;;;15.70;99.90;;;;;;5112480;27;20043;-38
2023/06/23 03:19:08;;;;;;;54.03;48.20;;;15.80;99.90;;;;;;5012332;28;20096;-38
2023/06/23 03:21:36;;;;;;;53.25;47.53;;;15.80;99.90;;;;;;5012108;28;20060;-39
2023/06/23 03:24:06;;;;;;;53.35;47.90;;;15.70;99.90;;;;;;5010259;28;20061;-39
2023/06/23 03:26:36;;;;;;;53.40;47.83;;;15.70;99.90;;;;;;5001141;28;20418;-39
2023/06/23 03:29:06;;;;;;;49.17;44.35;;;15.70;99.90;;;;;;4998153;28;20129;-38
2023/06/23 03:31:37;;;;;;;50.38;45.15;;;15.60;99.90;;;;;;4986685;28;20495;-38
2023/06/23 03:34:03;;;;;;;52.50;47.40;;;15.60;99.90;;;;;;5008033;28;20058;-38
2023/06/23 03:36:28;;;;;;;50.78;45.97;;;15.60;99.90;;;;;;5012861;28;20049;-39
2023/06/23 03:38:54;;;;;;;49.60;44.83;;;15.60;99.90;;;;;;4997139;28;20049;-38
2023/06/23 03:41:20;;;;;;;49.70;45.08;;;15.60;99.90;;;;;;5012452;28;20049;-38
2023/06/23 03:43:53;;;;;;;51.42;46.47;;;15.60;99.90;;;;;;5008065;28;20110;-38
2023/06/23 03:46:24;;;;;;;53.10;47.95;;;15.60;99.90;;;;;;4981398;28;20067;-38
2023/06/23 03:48:52;;;;;;;49.40;44.78;;;15.60;99.90;;;;;;4999130;28;20096;-38
2023/06/23 03:51:20;;;;;;;52.15;47.08;;;15.70;99.90;;;;;;5013439;28;20718;-38
2023/06/23 03:53:48;;;;;;;53.30;48.33;;;15.60;99.90;;;;;;4995949;28;20396;-38
2023/06/23 03:56:15;;;;;;;47.88;43.15;;;15.70;99.90;;;;;;5060193;28;20499;-39
2023/06/23 03:58:43;;;;;;;50.42;45.85;;;15.70;99.90;;;;;;5133811;27;20086;-38
2023/06/23 04:01:14;;;;;;;52.22;46.88;;;15.70;99.90;;;;;;5125055;27;20494;-38
2023/06/23 04:03:41;;;;;;;54.47;49.08;;;15.70;99.90;;;;;;5099932;27;20552;-39
2023/06/23 04:06:09;;;;;;;48.05;43.53;;;15.70;99.90;;;;;;5113243;27;20043;-38
2023/06/23 04:08:37;;;;;;;47.25;42.67;;;15.70;99.90;;;;;;5116153;27;20047;-39
2023/06/23 04:11:05;;;;;;;50.38;45.65;;;15.80;99.90;;;;;;5115168;27;20100;-39
2023/06/23 04:13:33;;;;;;;50.03;45.00;;;15.80;99.90;;;;;;5114895;27;20071;-38
2023/06/23 04:16:01;;;;;;;48.05;43.38;;;15.90;99.90;;;;;;5115108;27;20468;-39
2023/06/23 04:18:29;;;;;;;48.83;44.25;;;15.90;99.90;;;;;;5114396;27;20046;-39
2023/06/23 04:20:57;;;;;;;51.17;46.08;;;16.00;99.90;;;;;;5079761;27;20054;-39
2023/06/23 04:23:25;;;;;;;46.05;41.50;;;16.20;99.90;;;;;;5115228;27;20048;-38
2023/06/23 04:25:51;;;;;;;44.30;39.97;;;16.40;99.90;;;;;;5115518;27;20107;-39
2023/06/23 04:28:21;;;;;;;40.38;36.60;;;17.00;99.90;;;;;;5116013;27;20512;-39
2023/06/23 04:30:48;;;;;;;38.33;34.58;;;17.90;99.90;;;;;;5115084;27;20152;-39
2023/06/23 04:33:14;;;;;;;35.40;32.15;;;19.10;99.90;;;;;;5114811;27;20050;-39
2023/06/23 04:35:40;;;;;;;36.70;33.13;;;19.60;99.90;;;;;;5084523;27;20061;-40
2023/06/23 04:38:17;;;;;;;34.30;31.13;;;19.70;99.90;;;;;;5137116;27;20049;-39
2023/06/23 04:40:57;;;;;;;35.20;31.75;;;19.50;99.90;;;;;;5107763;27;21056;-39
2023/06/23 04:43:37;;;;;;;34.17;30.65;;;19.20;99.90;;;;;;5113989;27;20055;-39
2023/06/23 04:46:09;;;;;;;32.30;29.23;;;19.00;99.90;;;;;;5103116;27;20082;-39
2023/06/23 04:48:38;;;;;;;31.50;28.45;;;19.20;99.90;;;;;;5097484;27;20470;-39
2023/06/23 04:51:07;;;;;;;31.20;28.27;;;19.90;99.90;;;;;;5115671;27;20070;-40
2023/06/23 04:53:46;;;;;;;29.75;26.63;;;20.80;99.90;;;;;;5115492;27;20057;-40
2023/06/23 04:56:16;;;;;;;29.33;26.40;;;21.70;99.90;;;;;;5115846;27;20043;-40
2023/06/23 04:58:47;;;;;;;29.05;26.52;;;21.70;99.90;;;;;;5096114;27;20137;-39
2023/06/23 05:01:13;;;;;;;28.70;25.88;;;21.60;99.90;;;;;;5115774;27;20051;-40
2023/06/23 05:03:40;;;;;;;26.80;24.08;;;21.60;99.90;;;;;;5114291;27;20043;-40
2023/06/23 05:06:07;;;;;;;27.35;24.85;;;22.00;99.90;;;;;;5114826;27;20043;-40
2023/06/23 05:08:33;;;;;;;26.13;23.55;;;22.00;99.90;;;;;;5114849;27;20066;-41
2023/06/23 05:11:05;;;;;;;27.00;24.67;;;21.50;99.90;;;;;;5113495;27;20493;-40
2023/06/23 05:13:33;;;;;;;27.02;24.52;;;21.10;99.90;;;;;;5114231;27;20047;-41
2023/06/23 05:16:01;;;;;;;26.20;23.63;;;20.60;99.90;;;;;;5114708;27;20047;-40
2023/06/23 05:18:28;;;;;;;25.48;22.95;;;20.40;99.90;;;;;;5114409;27;20039;-39
2023/06/23 05:20:57;;;;;;;23.50;21.38;;;20.40;99.90;;;;;;5077886;27;20051;-40
2023/06/23 05:23:25;;;;;;;24.40;22.10;;;20.50;99.90;;;;;;5095973;27;20660;-40
2023/06/23 05:25:51;;;;;;;23.67;21.23;;;21.10;99.90;;;;;;5113979;27;20164;-40
2023/06/23 05:28:24;;;;;;;22.60;20.50;;;22.00;99.90;;;;;;5113863;27;20050;-40
2023/06/23 05:30:52;;;;;;;22.42;20.17;;;23.20;99.90;;;;;;5113356;27;20069;-41
2023/06/23 05:33:18;;;;;;;20.90;18.90;;;24.00;99.90;;;;;;5113480;27;20093;-40
2023/06/23 05:35:45;;;;;;;20.48;18.55;;;24.40;99.90;;;;;;5099756;27;20074;-40
2023/06/23 05:38:12;;;;;;;19.15;17.23;;;24.40;99.90;;;;;;5113717;27;20054;-40
2023/06/23 05:40:39;;;;;;;18.95;17.25;;;24.40;99.90;;;;;;5093886;27;20062;-40
2023/06/23 05:43:05;;;;;;;18.20;16.48;;;25.00;99.90;;;;;;5107063;27;20439;-40
2023/06/23 05:45:30;;;;;;;18.15;15.68;;;25.70;99.90;;;;;;5092448;27;20099;-41
2023/06/23 05:48:01;;;;;;;17.02;15.45;;;26.40;99.90;;;;;;5114539;27;20391;-40
2023/06/23 05:50:31;;;;;;;16.80;15.25;;;27.60;99.90;;;;;;5078007;27;20059;-41
2023/06/23 05:53:02;;;;;;;16.02;14.43;;;28.40;99.90;;;;;;5113438;27;20043;-40
2023/06/23 05:55:31;;;;;;;16.25;14.52;;;28.80;99.90;;;;;;5114165;27;20514;-40
2023/06/23 05:58:02;;;;;;;15.30;13.85;;;29.40;99.90;;;;;;5113959;27;20051;-41
2023/06/23 06:00:35;;;;;;;15.95;14.55;;;30.00;99.90;;;;;;5113810;27;20050;-41
2023/06/23 06:03:06;;;;;;;14.35;13.13;;;30.50;99.80;;;;;;5113556;27;20128;-41
2023/06/23 06:05:33;;;;;;;13.38;12.18;;;30.50;99.70;;;;;;5114345;27;20118;-41
2023/06/23 06:08:00;;;;;;;13.60;12.40;;;30.80;99.90;;;;;;5114056;27;20043;-41
2023/06/23 06:10:27;;;;;;;14.85;13.55;;;31.40;99.10;;;;;;5113175;27;20054;-41
2023/06/23 06:12:55;;;;;;;12.52;11.43;;;31.00;98.10;;;;;;5111562;27;20051;-41
2023/06/23 06:15:22;;;;;;;12.23;11.05;;;31.30;98.20;;;;;;5113462;27;20105;-43
2023/06/23 06:17:50;;;;;;;12.30;11.10;;;31.60;97.50;;;;;;5113220;27;20055;-40
2023/06/23 06:20:19;;;;;;;12.73;11.50;;;31.80;96.20;;;;;;5112288;27;20055;-41
2023/06/23 06:22:46;;;;;;;12.10;11.02;;;32.00;97.20;;;;;;5114632;27;20058;-43
2023/06/23 06:25:14;;;;;;;11.93;10.80;;;31.90;97.00;;;;;;5094895;28;20497;-43
2023/06/23 06:27:42;;;;;;;12.57;11.45;;;32.10;96.70;;;;;;5113631;27;20083;-43
2023/06/23 06:30:10;;;;;;;11.60;10.52;;;32.50;96.20;;;;;;5105779;27;20046;-42
2023/06/23 06:32:38;;;;;;;12.93;10.35;;;32.50;95.60;;;;;;5134253;27;20058;-41
2023/06/23 06:35:08;;;;;;;12.82;10.88;;;32.90;95.60;;;;;;5119329;27;20393;-41
2023/06/23 06:37:37;;;;;;;11.40;10.35;;;32.90;94.20;;;;;;5114148;27;20074;-41
2023/06/23 06:40:07;;;;;;;11.30;10.40;;;33.00;94.30;;;;;;5109851;27;20046;-41
2023/06/23 06:42:34;;;;;;;12.18;10.98;;;33.10;93.00;;;;;;5114540;27;20035;-41
2023/06/23 06:45:00;;;;;;;11.70;10.55;;;33.00;93.80;;;;;;5113330;27;20043;-41
2023/06/23 06:47:28;;;;;;;11.13;10.02;;;33.40;94.60;;;;;;5116090;27;20082;-43
2023/06/23 06:49:56;;;;;;;11.70;10.70;;;33.40;93.20;;;;;;5095030;28;20364;-41
2023/06/23 06:52:24;;;;;;;13.07;10.88;;;33.20;92.90;;;;;;5117034;27;20066;-41
2023/06/23 06:54:51;;;;;;;12.25;11.05;;;33.60;93.60;;;;;;5119014;27;20039;-43
2023/06/23 06:57:18;;;;;;;11.18;10.25;;;33.60;93.30;;;;;;5117472;27;20047;-42
2023/06/23 06:59:44;;;;;;;11.85;10.60;;;33.60;93.50;;;;;;5119090;27;20481;-41
2023/06/23 07:02:10;;;;;;;11.93;10.93;;;33.60;93.10;;;;;;5119613;27;20046;-41
2023/06/23 07:04:37;;;;;;;13.20;12.20;;;33.90;93.00;;;;;;5119012;27;20512;-41
2023/06/23 07:07:03;;;;;;;15.00;13.70;;;33.40;92.80;;;;;;5118820;27;20047;-41
2023/06/23 07:09:29;;;;;;;14.55;13.15;;;33.40;93.40;;;;;;5131857;27;20100;-41
2023/06/23 07:11:58;;;;;;;13.27;12.23;;;33.10;93.70;;;;;;5138131;27;20486;-42
2023/06/23 07:14:24;;;;;;;12.48;11.30;;;33.00;93.10;;;;;;5122956;27;20118;-44
2023/06/23 07:16:50;;;;;;;10.60;9.60;;;32.40;93.10;;;;;;5137276;27;20090;-42
2023/06/23 07:19:16;;;;;;;10.40;9.50;;;32.40;92.50;;;;;;5137215;27;20043;-41
2023/06/23 07:21:41;;;;;;;10.63;9.68;;;32.60;92.50;;;;;;5127850;27;20047;-40
2023/06/23 07:24:07;;;;;;;9.70;8.88;;;32.20;93.10;;;;;;5131365;27;20532;-41
2023/06/23 07:26:37;;;;;;;8.70;7.90;;;31.70;92.20;;;;;;5122877;27;20847;-41
2023/06/23 07:29:03;;;;;;;10.30;9.38;;;31.70;93.50;;;;;;5129557;27;20050;-41
2023/06/23 07:31:30;;;;;;;10.88;9.90;;;30.90;94.50;;;;;;5125117;27;20134;-41
2023/06/23 07:33:56;;;;;;;10.23;9.00;;;30.40;94.90;;;;;;5100018;27;20086;-41
2023/06/23 07:36:22;;;;;;;10.43;9.52;;;29.60;95.70;;;;;;5112155;27;20459;-41
2023/06/23 07:38:48;;;;;;;11.25;8.65;;;29.20;96.30;;;;;;5101480;27;20046;-42
2023/06/23 07:41:14;;;;;;;10.50;9.63;;;29.10;97.30;;;;;;5116591;27;20043;-42
2023/06/23 07:43:43;;;;;;;9.30;8.43;;;29.10;97.10;;;;;;5116991;27;20499;-42
2023/06/23 07:46:09;;;;;;;9.15;8.30;;;29.00;96.50;;;;;;5092255;27;20758;-41
2023/06/23 07:48:36;;;;;;;10.00;9.05;;;28.90;96.30;;;;;;5116489;27;20118;-40
2023/06/23 07:51:02;;;;;;;10.07;9.10;;;28.80;97.00;;;;;;5116790;27;20130;-41
2023/06/23 07:53:28;;;;;;;9.85;8.45;;;28.70;96.50;;;;;;5132663;27;20050;-41
2023/06/23 07:55:53;;;;;;;7.85;7.15;;;28.60;96.90;;;;;;5137223;27;20057;-42
2023/06/23 07:58:19;;;;;;;8.25;7.45;;;28.60;96.20;;;;;;5123599;27;20873;-42
2023/06/23 08:00:46;;;;;;;7.80;7.10;;;28.80;96.40;;;;;;5115971;27;20035;-44
2023/06/23 08:03:12;;;;;;;8.40;7.60;;;28.70;96.00;;;;;;5115310;27;20051;-40
2023/06/23 08:05:38;;;;;;;9.05;8.32;;;28.40;96.30;;;;;;5116352;27;20043;-41
2023/06/23 08:08:04;;;;;;;8.35;7.53;;;28.40;96.90;;;;;;5115026;27;20062;-40
2023/06/23 08:10:30;;;;;;;7.70;7.10;;;28.40;96.10;;;;;;5113224;27;20045;-41
2023/06/23 08:12:56;;;;;;;8.48;6.68;;;28.10;96.50;;;;;;5113669;27;20035;-42
2023/06/23 08:15:21;;;;;;;5.88;5.32;;;28.20;96.00;;;;;;5117709;27;20097;-40
2023/06/23 08:17:48;;;;;;;6.20;5.70;;;28.00;95.50;;;;;;5127623;27;20054;-42
2023/06/23 08:20:14;;;;;;;7.60;6.35;;;28.00;95.30;;;;;;5125587;27;20502;-42
2023/06/23 08:22:40;;;;;;;7.25;6.40;;;28.00;95.90;;;;;;5135172;27;20039;-40
2023/06/23 08:25:07;;;;;;;6.97;6.25;;;27.90;95.80;;;;;;5135224;27;20047;-40
2023/06/23 08:27:32;;;;;;;6.70;6.00;;;27.80;95.60;;;;;;5135200;27;20034;-42
2023/06/23 08:29:58;;;;;;;9.00;6.07;;;27.70;96.60;;;;;;5116454;27;20126;-40
2023/06/23 08:32:24;;;;;;;6.88;6.18;;;27.70;96.60;;;;;;5135270;27;20130;-42
2023/06/23 08:34:50;;;;;;;7.03;5.90;;;27.50;96.90;;;;;;5113508;27;20426;-41
2023/06/23 08:37:15;;;;;;;6.10;5.50;;;27.50;97.50;;;;;;5122181;27;20488;-42
2023/06/23 08:39:41;;;;;;;7.00;6.30;;;27.60;98.00;;;;;;5094010;27;20843;-40
2023/06/23 08:42:07;;;;;;;9.50;6.50;;;27.40;97.90;;;;;;5125889;27;20559;-41
2023/06/23 08:44:36;;;;;;;5.97;5.32;;;27.40;97.60;;;;;;5107528;27;20118;-40
2023/06/23 08:47:04;;;;;;;6.40;5.72;;;27.40;97.90;;;;;;5114695;27;20055;-40
2023/06/23 08:49:35;;;;;;;8.07;6.03;;;27.40;96.50;;;;;;5115528;27;20039;-40
2023/06/23 08:52:02;;;;;;;7.15;5.53;;;27.30;96.50;;;;;;5115164;27;20571;-40
2023/06/23 08:54:28;;;;;;;8.73;6.35;;;27.10;96.40;;;;;;5097595;27;20160;-40
2023/06/23 08:56:54;;;;;;;6.68;6.07;;;27.20;97.40;;;;;;5115658;27;20109;-41
2023/06/23 08:59:20;;;;;;;7.97;5.78;;;27.10;97.30;;;;;;5115393;27;20091;-49
2023/06/23 09:01:45;;;;;;;6.28;5.68;;;27.30;97.20;;;;;;5095961;27;20047;-41
2023/06/23 09:04:11;;;;;;;7.93;6.68;;;27.10;97.10;;;;;;5114894;27;20377;-40
2023/06/23 09:06:37;;;;;;;8.85;8.05;;;27.20;97.90;;;;;;5115187;27;20035;-41
2023/06/23 09:09:02;;;;;;;8.85;7.15;;;27.00;98.10;;;;;;5114867;27;20043;-40
2023/06/23 09:11:28;;;;;;;6.80;6.10;;;26.70;98.20;;;;;;5114695;27;20146;-41
2023/06/23 09:13:56;;;;;;;7.80;7.00;;;26.80;98.40;;;;;;5113911;27;20496;-40
2023/06/23 09:16:22;;;;;;;8.05;6.53;;;26.90;97.30;;;;;;5112853;27;20039;-40
2023/06/23 09:18:48;;;;;;;8.18;7.28;;;27.00;97.90;;;;;;5114704;27;20051;-42
2023/06/23 09:21:14;;;;;;;6.85;6.00;;;27.20;99.00;;;;;;5115126;27;20422;-40
2023/06/23 09:24:02;;;;;;;8.85;5.97;;;27.50;98.40;;;;;;5114593;27;20495;-41
2023/06/23 09:26:28;;;;;;;6.85;6.00;;;27.30;97.40;;;;;;5115053;27;20053;-40
2023/06/23 09:29:22;;;;;;;6.43;5.47;;;27.30;97.40;;;;;;5114342;27;20491;-42
2023/06/23 09:31:50;;;;;;;10.90;6.25;;;27.40;97.20;;;;;;5114928;27;20043;-41
2023/06/23 09:34:22;;;;;;;8.50;5.85;;;27.30;97.90;;;;;;5089431;28;20105;-40
2023/06/23 09:36:48;;;;;;;5.95;5.25;;;27.40;97.40;;;;;;5088226;27;20082;-41
2023/06/23 09:39:15;;;;;;;6.72;5.43;;;27.50;97.60;;;;;;5113409;27;20552;-42
2023/06/23 09:41:46;;;;;;;6.40;5.68;;;27.50;96.90;;;;;;5115015;27;20054;-40
2023/06/23 09:44:13;;;;;;;8.27;5.38;;;27.60;97.40;;;;;;5103864;27;20039;-41
2023/06/23 09:46:40;;;;;;;6.85;5.90;;;27.60;97.60;;;;;;5113599;27;20107;-41
2023/06/23 09:49:07;;;;;;;13.57;6.72;;;27.70;98.10;;;;;;5113605;27;20089;-40
2023/06/23 09:51:37;;;;;;;6.97;5.22;;;27.60;98.30;;;;;;5114870;27;20539;-40
2023/06/23 09:54:03;;;;;;;6.20;5.20;;;27.50;96.90;;;;;;5113804;27;20058;-40
2023/06/23 09:56:29;;;;;;;5.60;5.10;;;27.60;96.70;;;;;;5114861;27;20396;-40
2023/06/23 09:58:55;;;;;;;8.68;6.07;;;27.50;95.90;;;;;;5102143;27;20055;-40
2023/06/23 10:01:20;;;;;;;10.98;5.63;;;27.50;96.70;;;;;;5121315;27;20054;-42
2023/06/23 10:03:52;;;;;;;7.30;5.75;;;27.50;96.60;;;;;;5129571;27;20427;-40
2023/06/23 10:06:26;;;;;;;6.32;5.72;;;27.30;96.60;;;;;;5111993;27;20035;-41
2023/06/23 10:08:57;;;;;;;8.20;5.93;;;27.40;95.40;;;;;;5108133;27;20042;-40
2023/06/23 10:11:31;;;;;;;8.23;5.78;;;27.30;95.90;;;;;;5112741;27;20051;-40
2023/06/23 10:14:05;;;;;;;6.53;5.70;;;27.40;96.00;;;;;;5093872;28;20047;-40
2023/06/23 10:16:32;;;;;;;6.43;5.80;;;27.40;96.80;;;;;;5112935;27;20051;-41
2023/06/23 10:18:57;;;;;;;6.10;5.50;;;27.40;95.70;;;;;;5111581;27;20123;-41
2023/06/23 10:21:24;;;;;;;7.45;5.28;;;27.50;95.10;;;;;;5111825;27;20526;-41
2023/06/23 10:23:54;;;;;;;6.10;5.55;;;27.20;94.40;;;;;;5111568;27;20568;-41
2023/06/23 10:26:22;;;;;;;6.15;5.57;;;27.30;94.60;;;;;;5112921;27;20150;-43
2023/06/23 10:28:50;;;;;;;7.18;5.88;;;27.20;94.70;;;;;;5116287;27;20070;-41
2023/06/23 10:31:17;;;;;;;8.90;6.20;;;27.30;95.60;;;;;;5116515;27;20071;-40
2023/06/23 10:33:44;;;;;;;7.15;5.53;;;27.10;94.50;;;;;;5114940;27;20180;-41
2023/06/23 10:36:15;;;;;;;6.45;5.57;;;27.20;94.20;;;;;;5085296;27;20051;-41
2023/06/23 10:38:45;;;;;;;7.50;6.75;;;27.20;94.50;;;;;;5102319;27;20048;-40
2023/06/23 10:41:13;;;;;;;8.13;5.75;;;27.20;95.50;;;;;;5104136;27;20390;-41
2023/06/23 10:43:45;;;;;;;7.25;5.03;;;27.20;94.80;;;;;;5106933;27;20422;-40
2023/06/23 10:46:11;;;;;;;5.93;5.32;;;27.20;94.10;;;;;;5137100;27;20134;-41
2023/06/23 10:48:37;;;;;;;8.00;6.00;;;27.20;93.00;;;;;;5123756;27;20047;-42
2023/06/23 10:51:04;;;;;;;8.30;6.65;;;27.00;94.00;;;;;;5116094;27;20043;-41
2023/06/23 10:53:32;;;;;;;7.65;5.40;;;27.00;94.40;;;;;;5114416;27;20043;-42
2023/06/23 10:55:59;;;;;;;6.03;5.15;;;26.90;93.00;;;;;;5097252;27;20059;-40
2023/06/23 10:58:27;;;;;;;5.00;4.50;;;26.90;93.60;;;;;;5115868;27;20054;-42
2023/06/23 11:00:53;;;;;;;8.07;5.22;;;27.00;94.10;;;;;;5097051;27;20100;-40
2023/06/23 11:03:36;;;;;;;9.70;6.78;;;27.10;94.60;;;;;;5114976;27;20138;-40
2023/06/23 11:06:06;;;;;;;7.72;6.38;;;27.20;96.10;;;;;;5136005;27;20062;-41
2023/06/23 11:08:33;;;;;;;8.85;6.05;;;27.20;95.50;;;;;;5134615;27;20146;-40
2023/06/23 11:11:00;;;;;;;7.25;6.28;;;27.10;95.10;;;;;;5117849;27;20053;-41
2023/06/23 11:13:50;;;;;;;7.85;5.68;;;27.10;94.20;;;;;;5136644;27;20047;-40
2023/06/23 11:16:28;;;;;;;6.32;4.85;;;27.00;93.40;;;;;;5032700;28;20140;-40
2023/06/23 11:18:59;;;;;;;6.40;5.35;;;26.90;92.50;;;;;;5031502;28;20064;-40
2023/06/23 11:21:30;;;;;;;6.63;5.22;;;27.00;93.60;;;;;;5032019;28;20147;-40
2023/06/23 11:24:19;;;;;;;6.07;4.97;;;27.00;94.10;;;;;;5032234;28;20490;-40
2023/06/23 11:26:52;;;;;;;7.32;4.45;;;27.10;93.60;;;;;;5016453;28;20060;-40
2023/06/23 11:29:20;;;;;;;6.75;5.28;;;27.10;93.80;;;;;;5032814;28;20048;-40
2023/06/23 11:32:06;;;;;;;5.60;4.45;;;26.90;93.00;;;;;;5031643;28;20574;-40
2023/06/23 11:34:56;;;;;;;5.93;4.88;;;26.90;93.10;;;;;;5032163;28;20049;-40
2023/06/23 11:37:27;;;;;;;5.22;4.65;;;27.00;91.90;;;;;;5030234;28;20124;-40
2023/06/23 11:39:54;;;;;;;8.40;4.68;;;27.10;92.80;;;;;;5013284;28;20498;-40
2023/06/23 11:42:21;;;;;;;6.65;4.45;;;26.90;92.90;;;;;;5031081;28;20059;-41
2023/06/23 11:44:48;;;;;;;4.75;4.00;;;27.00;92.20;;;;;;5031792;28;20063;-41
2023/06/23 11:47:14;;;;;;;4.68;4.13;;;27.10;92.10;;;;;;5030745;28;20507;-40
2023/06/23 11:49:40;;;;;;;5.47;4.28;;;27.10;93.10;;;;;;5031072;28;20070;-40
2023/06/23 11:52:07;;;;;;;6.45;4.28;;;27.10;93.50;;;;;;5035835;28;20392;-41
2023/06/23 11:54:35;;;;;;;5.05;4.55;;;27.10;91.50;;;;;;5117323;27;20488;-40
2023/06/23 11:57:04;;;;;;;5.18;4.10;;;27.10;91.50;;;;;;5136642;27;20099;-40
2023/06/23 11:59:37;;;;;;;7.38;4.38;;;27.10;91.30;;;;;;5118333;27;20441;-40
2023/06/23 12:02:04;;;;;;;4.90;3.90;;;27.00;92.30;;;;;;5104739;27;20502;-41
2023/06/23 12:04:34;;;;;;;5.93;4.10;;;27.00;92.70;;;;;;5108957;27;20455;-43
2023/06/23 12:07:02;;;;;;;5.40;3.83;;;27.00;91.70;;;;;;5097012;27;20047;-40
2023/06/23 12:09:28;;;;;;;7.00;4.70;;;26.90;92.50;;;;;;5114516;27;20062;-41
2023/06/23 12:11:54;;;;;;;6.60;4.70;;;26.90;92.50;;;;;;5115229;27;20047;-40
2023/06/23 12:14:31;;;;;;;6.07;3.95;;;26.80;92.70;;;;;;5095724;27;20054;-41
2023/06/23 12:17:10;;;;;;;4.93;3.78;;;26.70;92.00;;;;;;5115528;27;20051;-40
2023/06/23 12:19:37;;;;;;;5.22;4.10;;;26.80;92.00;;;;;;5114534;27;20043;-40
2023/06/23 12:22:04;;;;;;;6.30;4.07;;;26.70;93.10;;;;;;5096061;27;20046;-40
2023/06/23 12:24:30;;;;;;;7.25;3.92;;;26.70;92.60;;;;;;5120548;27;20112;-39
2023/06/23 12:26:58;;;;;;;5.63;4.45;;;26.80;92.50;;;;;;5122497;27;20042;-40
2023/06/23 12:29:24;;;;;;;6.55;3.78;;;26.90;92.70;;;;;;5120795;27;20584;-40
2023/06/23 12:31:55;;;;;;;5.72;3.70;;;27.00;93.10;;;;;;5115721;27;20099;-41
2023/06/23 12:34:20;;;;;;;4.95;3.67;;;27.00;92.20;;;;;;5093978;27;20429;-41
2023/06/23 12:36:47;;;;;;;5.43;3.75;;;27.00;92.30;;;;;;5116016;27;20035;-40
2023/06/23 12:39:15;;;;;;;5.50;4.00;;;27.10;92.80;;;;;;5112500;27;20103;-41
2023/06/23 12:41:41;;;;;;;4.35;3.63;;;26.90;91.60;;;;;;5117705;27;20047;-41
2023/06/23 12:44:07;;;;;;;4.82;3.80;;;26.90;92.10;;;;;;5109808;27;20563;-41